Virgil De Roon

Scout - Feyenoord
26 Dez 2028
Dienstag
Verarbeitung

Persönlichkeit

Anpassungsfähigkeit (8) Ehrgeiz (18) Kontroverse (3) Loyalität (15) Druck (18) Professionalität (1) Fairness (5) Temperament (19)

Profil

Trainerstil Demokratisch
Lizenz Kontinentale B
Entschlossenheit 16
Menschenführung 11
Motivation 12
Disziplin 7
Arbeitszufriedenheit
100%
Ermüdung
0%
Rolle Scout
Gehalt 109.2K p/W
Vertrag 14.03.2029

Leistung

Verhalten Gut
Trainingseffektivität
49%
Spielerentwicklung
70%
Verletzungsprävention
45%
Taktische Umsetzung
70%

Letzte Ereignisse

Vertragsverhandlung begonnen 7T her
Vertragsverhandlung begonnen 7T her
Vertragsverhandlung begonnen 7T her
Vertragsverhandlung begonnen 7T her
Vertragsverhandlung begonnen 7T her
Vertragsverhandlung begonnen 7T her
Vertragsverhandlung begonnen 14T her
Vertragsverhandlung begonnen 14T her

Aktuell beobachtet

90
Spieler Verein Status Fähigkeit Vertrauen Beobachtet Zuletzt beobachtet Letzte Stimme
Omari Hutchinson Nottingham Forest Aktiv 157 / 154 40% 2 03.07.2028 -
Takefusa Kubo Real Sociedad Aktiv 162 / 153 40% 1 03.07.2028 -
Bryan Gil Girona Aktiv 156 / 144 40% 1 03.07.2028 -
Gabriel Gudmundsson Leeds United Aktiv 152 / 152 40% 2 01.07.2028 -
Yunus Akgün Galatasaray Aktiv 147 / 148 40% 1 01.07.2028 -
Beñat Turrientes Valladolid Aktiv 148 / 140 40% 1 29.06.2028 -
Jon Gorrotxategi Real Sociedad Aktiv 151 / 153 40% 1 29.06.2028 -
Éderson Atalanta Aktiv 165 / 160 40% 1 28.06.2028 -
Jean-Clair Todibo West Ham United Aktiv 154 / 152 40% 1 28.06.2028 -
Martín Zubimendi Arsenal Aktiv 170 / 169 40% 1 28.06.2028 -
Pote Sporting CP Aktiv 163 / 152 40% 1 27.06.2028 -
Assane Diao Como Aktiv 154 / 153 40% 1 27.06.2028 -
Maxim Dekker AZ Aktiv 127 / 121 90% 1 26.06.2028 Befürworten
Omar El Hilali Espanyol Aktiv 157 / 163 40% 3 03.06.2028 -
Alexis Mac Allister Liverpool Aktiv 167 / 160 40% 1 03.06.2028 -
Mexx Meerdink AZ Aktiv 136 / 130 90% 1 01.06.2028 Befürworten
Erick Sánchez Botafogo Aktiv 147 / 129 40% 1 29.08.2027 -
Facundo Torres Austin FC Aktiv 134 / 130 40% 1 29.08.2027 -
Emil Breivik Molde Aktiv 137 / 134 40% 1 24.08.2027 -
Matías Palacios Al Ain Aktiv 146 / 143 40% 1 23.08.2027 -
Christos Zafeiris PAOK Aktiv 151 / 129 40% 1 23.08.2027 -
Fredrik Sjøvold Bodo/Glimt Aktiv 140 / 135 40% 1 23.08.2027 -
Djordje Mihailović Toronto FC Aktiv 132 / 133 40% 1 22.08.2027 -
Facundo Pellistri Panathinaikos Aktiv 130 / 124 40% 1 22.08.2027 -
Telasco Segovia Inter Miami CF Aktiv 138 / 132 40% 1 22.08.2027 -
Cristian Romero Atlético Madrid Aktiv 160 / 156 40% 1 16.08.2027 -
Bojan Kovačević Cádiz Aktiv 135 / 131 40% 1 16.08.2027 -
Andrea Cambiaso Juventus Aktiv 156 / 159 40% 1 16.08.2027 -
Ramón Terrats Getafe Aktiv 149 / 156 40% 2 15.08.2027 -
Miguel Rubio Valladolid Aktiv 140 / 139 40% 5 15.08.2027 -
Hugo Guillamón Gijón Aktiv 137 / 124 40% 3 15.08.2027 -
Fran García Betis Aktiv 157 / 154 40% 1 14.08.2027 -
Manu Koné AS Roma Aktiv 165 / 165 40% 1 14.08.2027 -
Andrés Martín Racing Santander Aktiv 142 / 144 40% 4 12.08.2027 -
Nico Paz Como Aktiv 164 / 165 40% 1 12.08.2027 -
Roberto López Leganés Aktiv 139 / 144 40% 1 12.08.2027 -
Antonio Blanco Alavés Aktiv 148 / 155 40% 1 11.08.2027 -
Jesús Vázquez Valencia Aktiv 138 / 141 40% 1 11.08.2027 -
Frank Onyeka Coventry City Aktiv 140 / 135 40% 4 08.08.2027 -
Oliver Skipp Leicester City Aktiv 134 / 144 40% 2 08.08.2027 -
Enrique Clemente Las Palmas Aktiv 136 / 125 40% 2 06.08.2027 -
Ben Sheaf Wrexham Aktiv 131 / 129 40% 3 05.08.2027 -
Jorge De Frutos Rayo Vallecano Aktiv 151 / 158 40% 1 05.08.2027 -
Flynn Downes Southampton Aktiv 132 / 128 40% 2 01.08.2027 -
Adrià Altimira Deportivo La Coruña Aktiv 135 / 125 40% 4 31.07.2027 -
Luke McNally Bristol City Aktiv 133 / 123 40% 2 31.07.2027 -
Seiya Maikuma AZ Aktiv 142 / 134 40% 3 30.07.2027 -
Azzedine Ounahi Girona Aktiv 142 / 150 40% 1 30.07.2027 -
Callum O'Hare Sheffield United Aktiv 138 / 131 40% 1 29.07.2027 -
Javi Ontiveros Cádiz Aktiv 131 / 124 40% 1 29.07.2027 -
Ramiz Zerrouki Twente Aktiv 144 / 138 40% 2 28.07.2027 -
Ethan Galbraith Swansea City Aktiv 142 / 134 40% 5 26.07.2027 -
Quilindschy Hartman Burnley Aktiv 152 / 156 40% 2 24.07.2027 -
Ilias Sebaoui Sint-Truiden Aktiv 133 / 132 40% 1 23.07.2027 -
Ronald Swansea City Aktiv 135 / 123 40% 1 23.07.2027 -
Kevin Paredes Nottingham Forest Aktiv 134 / 146 40% 2 22.07.2027 -
Kevin Mertens Mouscron Aktiv 161 / 150 40% 4 20.07.2027 -
Harry Wilson Leeds United Aktiv 146 / 156 40% 1 20.07.2027 -
Iván Romero Levante Aktiv 143 / 142 40% 1 20.07.2027 -
Hans Batshuayi Mouscron Aktiv 158 / 153 40% 3 19.07.2027 -
Urko Izeta Cádiz Aktiv 136 / 133 40% 2 19.07.2027 -
André Wolverhampton Aktiv 151 / 150 40% 1 16.07.2027 -
Edoardo Bove Watford Aktiv 135 / 126 40% 1 14.07.2027 -
Ilay Camara Anderlecht Aktiv 137 / 125 40% 2 08.07.2027 -
Víctor Chust Elche Aktiv 137 / 129 40% 1 08.07.2027 -
Fran Beltrán Girona Aktiv 140 / 137 40% 1 07.07.2027 -
Freddie Potts Club Brugge Aktiv 133 / 137 40% 1 05.07.2027 -
Gustavo Puerta Racing Santander Aktiv 144 / 131 40% 2 02.07.2027 -
Alejandro Zendejas Club America Aktiv 146 / 135 40% 1 02.07.2027 -
Félix Lemaréchal Club Brugge Aktiv 139 / 140 40% 1 02.07.2027 -
Esteban Lepaul Stade Rennais Aktiv 138 / 138 40% 4 25.06.2027 -
Yuri Alberto Atlético Mineiro Aktiv 143 / 138 40% 1 25.06.2027 -
Gonzalo Plata Dinamo Moscow Aktiv 132 / 138 40% 1 24.06.2027 -
Carlos Espí Real Madrid Aktiv 121 / 136 40% 1 24.06.2027 -
Israel Reyes Club America Aktiv 141 / 153 40% 1 22.06.2027 -
Federico Pereira Toluca Aktiv 136 / 129 40% 1 21.06.2027 -
Richard Ledezma Guadalajara Aktiv 138 / 151 40% 1 21.06.2027 -
Pau Víctor Braga Aktiv 137 / 151 40% 1 19.06.2027 -
Kauã Elias Shakhtar Aktiv 131 / 128 40% 1 19.06.2027 -
Eddie Nketiah Crystal Palace Aktiv 144 / 140 40% 1 19.06.2027 -
Noah Okafor Leeds United Aktiv 140 / 134 40% 1 14.06.2027 -
Kerem Aktürkoğlu Fenerbahce Aktiv 149 / 140 40% 1 14.06.2027 -
Dwight McNeil Crystal Palace Aktiv 137 / 130 40% 2 13.06.2027 -
Nicolò Zaniolo Udinese Aktiv 140 / 136 40% 1 10.06.2027 -
Steven Bergwijn Al-Ittihad Aktiv 156 / 166 40% 2 09.06.2027 -
Yoan Bonny Inter Aktiv 144 / 143 40% 1 07.06.2027 -
Ansu Fati Monaco Aktiv 140 / 145 40% 2 06.06.2027 -
Dodi Lukébakio Benfica Aktiv 148 / 142 40% 1 05.06.2027 -
Karl Etta Eyong Levante Aktiv 146 / 147 40% 1 02.06.2027 -
Arjan Malić Sturm Graz Aktiv 120 / 132 40% 1 05.01.2027 -